Terminal Aerodrome Forecast
Issued by NWS Missoula, MT

Home | Current Version | Previous Version | Text Only | Print | Product List | Glossary On
Versions: 1 2 3 4 5 6 7 8 9 10 11 12 13 14 15 16
000
FTUS45 KMSO 061123
TAFMSO
TAF
KMSO 061123Z 0612/0712 36003KT P6SM VCSH BKN060
     FM061600 19012KT P6SM VCSH OVC050
      TEMPO 0619/0622 28017KT 5SM -SN BR OVC030
     FM062200 30011G18KT P6SM VCSH OVC050
     FM070200 31008KT P6SM OVC100=

USA.gov is the U.S. government's official web portal to all federal, state and local government web resources and services.